Time;durP1;ratioP1;P1;durP2;ratioP2;P2;SDS_P1;SDS_P2;PMS_P1;PMS_P2;Temp;Humidity;BMP_temperature;BMP_pressure;BME280_temperature;BME280_humidity;BME280_pressure;Samples;Min_cycle;Max_cycle;Signal;HPM_P1;HPM_P2
2024/03/20 00:01:50;;;;;;;12.50;2.85;;;;;;;-146.27;77.70;44127.63;5076963;28;20019;-74
2024/03/20 00:04:16;;;;;;;8.13;2.55;;;;;;;-146.27;78.73;44089.81;5086770;28;20391;-74
2024/03/20 00:06:41;;;;;;;7.45;2.45;;;;;;;-146.27;77.21;44155.47;5080261;28;20032;-74
2024/03/20 00:09:10;;;;;;;9.52;2.65;;;;;;;-146.27;76.98;44175.38;5086571;28;20047;-74
2024/03/20 00:11:35;;;;;;;14.50;3.17;;;;;;;-146.27;76.96;44155.47;5078058;28;20016;-74
2024/03/20 00:14:02;;;;;;;13.00;3.13;;;;;;;-146.27;77.53;44211.19;5090438;28;20031;-74
2024/03/20 00:16:27;;;;;;;11.90;2.80;;;;;;;-146.27;77.81;44191.28;5082373;28;20109;-73
2024/03/20 00:18:53;;;;;;;21.70;3.78;;;;;;;-146.27;76.96;44175.38;5087073;28;20048;-74
2024/03/20 00:21:18;;;;;;;8.70;3.95;;;;;;;-146.27;76.77;44231.09;5089154;28;20194;-74
2024/03/20 00:23:43;;;;;;;13.73;3.17;;;;;;;-146.27;77.35;44199.25;5085855;28;20498;-74
2024/03/20 00:26:09;;;;;;;11.98;2.53;;;;;;;-146.27;77.25;44209.19;5088964;28;20527;-73
2024/03/20 00:28:35;;;;;;;9.48;3.20;;;;;;;-146.27;77.03;44203.22;5090353;28;20024;-74
2024/03/20 00:31:01;;;;;;;16.27;3.42;;;;;;;-146.27;76.55;44239.03;5081591;28;20036;-73
2024/03/20 00:33:27;;;;;;;11.90;3.85;;;;;;;-146.27;76.99;44243.03;5090008;28;20092;-74
2024/03/20 00:35:52;;;;;;;13.25;3.47;;;;;;;-146.27;76.85;44233.06;5093106;28;20035;-73
2024/03/20 00:38:17;;;;;;;14.93;3.35;;;;;;;-146.27;76.79;44258.94;5090687;28;20020;-73
2024/03/20 00:40:43;;;;;;;14.60;3.20;;;;;;;-146.27;77.80;44254.97;5083053;28;20020;-74
2024/03/20 00:43:08;;;;;;;11.38;3.47;;;;;;;-146.27;78.29;44211.19;5090378;28;20054;-74
2024/03/20 00:45:33;;;;;;;13.10;3.45;;;;;;;-146.27;78.30;44250.97;5087361;28;20048;-74
2024/03/20 00:47:59;;;;;;;6.90;2.83;;;;;;;-146.27;78.14;44231.09;5084557;28;20019;-73
2024/03/20 00:50:24;;;;;;;10.30;3.10;;;;;;;-146.27;78.08;44247.00;5093839;28;20055;-73
2024/03/20 00:52:50;;;;;;;8.65;2.75;;;;;;;-146.27;78.90;44258.94;5097362;28;20481;-73
2024/03/20 00:55:16;;;;;;;11.48;2.92;;;;;;;-146.27;79.24;44250.97;5085458;28;20074;-74
2024/03/20 00:57:43;;;;;;;9.43;3.55;;;;;;;-146.27;78.98;44270.88;5080936;28;20040;-73
2024/03/20 01:00:08;;;;;;;11.27;3.85;;;;;;;-146.27;79.19;44260.94;5087383;28;20436;-74
2024/03/20 01:02:34;;;;;;;10.40;3.67;;;;;;;-146.27;79.36;44250.97;5082837;28;20069;-74
2024/03/20 01:04:59;;;;;;;9.82;3.35;;;;;;;-146.27;80.06;44286.78;5095980;28;20040;-74
2024/03/20 01:07:26;;;;;;;11.93;3.55;;;;;;;-146.27;79.89;44298.75;5085180;28;20099;-73
2024/03/20 01:09:51;;;;;;;12.32;3.30;;;;;;;-146.27;80.21;44300.72;5088544;28;20027;-74
2024/03/20 01:12:17;;;;;;;13.57;4.00;;;;;;;-146.27;80.10;44286.78;5093180;28;20498;-73
2024/03/20 01:14:44;;;;;;;14.00;3.20;;;;;;;-146.27;80.62;44268.88;5089304;28;20115;-74
2024/03/20 01:17:15;;;;;;;15.23;3.65;;;;;;;-146.27;80.66;44290.78;5100354;28;20024;-73
2024/03/20 01:19:43;;;;;;;10.23;2.88;;;;;;;-146.27;81.41;44241.03;5088338;28;20492;-73
2024/03/20 01:22:10;;;;;;;13.90;3.10;;;;;;;-146.27;81.35;44247.00;5084534;28;20519;-73
2024/03/20 01:24:35;;;;;;;16.52;3.63;;;;;;;-146.27;80.75;44276.84;5049339;28;1097282;-73
2024/03/20 01:27:00;;;;;;;9.18;3.03;;;;;;;-146.27;80.89;44266.91;5082079;28;20024;-73
2024/03/20 01:29:26;;;;;;;9.05;3.95;;;;;;;-146.27;81.68;44233.06;5090773;28;20050;-72
2024/03/20 01:31:51;;;;;;;10.05;3.33;;;;;;;-146.27;81.14;44245.00;5083019;28;20399;-73
2024/03/20 01:34:17;;;;;;;10.52;2.90;;;;;;;-146.27;80.95;44235.06;5092393;28;20134;-73
2024/03/20 01:36:42;;;;;;;13.90;3.55;;;;;;;-146.27;80.90;44254.97;5089185;28;20711;-72
2024/03/20 01:39:07;;;;;;;13.73;3.60;;;;;;;-146.27;81.01;44272.88;5094020;28;20428;-73
2024/03/20 01:41:34;;;;;;;9.65;3.40;;;;;;;-146.27;81.49;44243.03;5096356;28;20507;-72
2024/03/20 01:44:00;;;;;;;11.82;3.42;;;;;;;-146.27;81.33;44237.06;5106018;28;20058;-74
2024/03/20 01:46:28;;;;;;;12.70;3.40;;;;;;;-146.27;82.21;44239.03;5076631;28;20028;-74
2024/03/20 01:48:54;;;;;;;14.15;3.40;;;;;;;-146.27;81.77;44213.19;5088597;28;20024;-73
2024/03/20 01:51:20;;;;;;;14.27;3.05;;;;;;;-146.27;81.87;44231.09;5095956;28;20027;-73
2024/03/20 01:53:46;;;;;;;14.00;3.03;;;;;;;-146.27;81.28;44197.25;5100810;28;20537;-74
2024/03/20 01:56:12;;;;;;;8.18;3.10;;;;;;;-146.27;80.81;44229.09;5081649;28;20412;-73
2024/03/20 01:58:37;;;;;;;14.23;3.08;;;;;;;-146.27;80.72;44207.22;5096994;28;20020;-73
2024/03/20 02:01:02;;;;;;;6.85;3.05;;;;;;;-146.27;80.51;44219.16;5090220;28;20027;-74
2024/03/20 02:03:28;;;;;;;17.92;4.20;;;;;;;-146.27;80.26;44231.09;5088944;28;20035;-74
2024/03/20 02:05:54;;;;;;;6.80;2.63;;;;;;;-146.27;80.02;44276.84;5077166;28;20095;-74
2024/03/20 02:08:20;;;;;;;12.98;3.42;;;;;;;-146.27;80.23;44243.03;5087000;28;20027;-73
2024/03/20 02:10:45;;;;;;;12.45;2.97;;;;;;;-146.27;80.50;44250.97;5078749;28;20384;-74
2024/03/20 02:13:10;;;;;;;9.02;3.17;;;;;;;-146.27;80.54;44274.84;5093075;28;20478;-73
2024/03/20 02:15:37;;;;;;;8.95;3.20;;;;;;;-146.27;80.94;44229.09;5084468;28;20069;-73
2024/03/20 02:18:03;;;;;;;13.20;3.47;;;;;;;-146.27;80.54;44284.81;5080650;28;20043;-74
2024/03/20 02:20:29;;;;;;;10.63;2.70;;;;;;;-146.27;80.45;44282.81;5087561;28;20101;-74
2024/03/20 02:22:54;;;;;;;10.65;3.05;;;;;;;-146.27;80.24;44278.84;5088417;28;20118;-74
2024/03/20 02:25:24;;;;;;;6.72;2.75;;;;;;;-146.27;80.48;44286.78;5092664;28;20365;-73
2024/03/20 02:27:49;;;;;;;8.45;3.05;;;;;;;-146.27;80.98;44318.63;5088889;28;20047;-74
2024/03/20 02:30:14;;;;;;;9.63;2.90;;;;;;;-146.27;81.89;44298.75;5085338;28;20436;-74
2024/03/20 02:32:40;;;;;;;13.50;3.47;;;;;;;-146.27;81.95;44322.63;5090928;28;20674;-74
2024/03/20 02:35:07;;;;;;;10.40;2.97;;;;;;;-146.27;81.81;44348.47;5096505;28;20031;-74
2024/03/20 02:37:32;;;;;;;9.25;3.20;;;;;;;-146.27;82.11;44346.50;5100447;28;20059;-75
2024/03/20 02:39:58;;;;;;;6.18;2.42;;;;;;;-146.27;83.06;44314.66;5089025;28;20056;-73
2024/03/20 02:42:24;;;;;;;8.45;3.00;;;;;;;-146.27;82.58;44352.47;5086782;28;21934;-74
2024/03/20 02:44:50;;;;;;;8.35;3.53;;;;;;;-146.27;83.19;44302.72;5084001;28;20527;-74
2024/03/20 02:47:16;;;;;;;13.65;3.20;;;;;;;-146.27;83.52;44292.78;5088379;28;20102;-74
2024/03/20 02:49:42;;;;;;;7.93;3.58;;;;;;;-146.27;83.45;44266.91;5086044;28;20077;-74
2024/03/20 02:52:07;;;;;;;6.95;2.80;;;;;;;-146.27;83.03;44290.78;5089497;28;20035;-74
2024/03/20 02:54:34;;;;;;;7.53;3.35;;;;;;;-146.27;82.99;44330.56;5087157;28;20107;-74
2024/03/20 02:57:00;;;;;;;15.00;3.97;;;;;;;-146.27;83.85;44290.78;5083239;28;20016;-74
2024/03/20 02:59:25;;;;;;;13.52;3.50;;;;;;;-146.27;83.96;44247.00;5079771;28;20031;-74
2024/03/20 03:01:51;;;;;;;10.38;3.33;;;;;;;-146.27;84.43;44270.88;5079882;28;20480;-75
2024/03/20 03:04:17;;;;;;;12.15;3.42;;;;;;;-146.27;83.47;44326.59;5086640;28;20095;-73
2024/03/20 03:06:43;;;;;;;18.10;3.97;;;;;;;-146.27;83.71;44314.66;5083570;28;20055;-74
2024/03/20 03:09:08;;;;;;;11.48;3.20;;;;;;;-146.27;83.81;44280.81;5094386;28;20039;-74
2024/03/20 03:11:37;;;;;;;7.72;2.85;;;;;;;-146.27;84.04;44266.91;5090192;28;20031;-74
2024/03/20 03:14:05;;;;;;;10.85;3.33;;;;;;;-146.27;84.28;44239.03;5091552;28;20024;-74
2024/03/20 03:16:31;;;;;;;8.90;3.10;;;;;;;-146.27;83.40;44258.94;5080011;28;20427;-74
2024/03/20 03:18:56;;;;;;;9.18;3.13;;;;;;;-146.27;83.85;44233.06;5093327;28;20032;-74
2024/03/20 03:21:22;;;;;;;11.88;3.20;;;;;;;-146.27;83.70;44203.22;5088447;28;20059;-73
2024/03/20 03:23:47;;;;;;;12.13;3.88;;;;;;;-146.27;83.03;44290.78;5092433;28;20077;-73
2024/03/20 03:26:12;;;;;;;9.25;3.00;;;;;;;-146.27;83.63;44266.91;5091801;28;20040;-73
2024/03/20 03:28:38;;;;;;;8.35;3.10;;;;;;;-146.27;84.25;44235.06;5089230;28;20177;-74
2024/03/20 03:31:03;;;;;;;10.88;4.03;;;;;;;-146.27;83.98;44239.03;5083314;28;20629;-74
2024/03/20 03:33:28;;;;;;;10.50;3.30;;;;;;;-146.27;83.32;44274.84;5098108;28;20031;-74
2024/03/20 03:36:07;;;;;;;10.68;3.70;;;;;;;-146.27;83.68;44237.06;5087730;28;20482;-73
2024/03/20 03:38:33;;;;;;;14.45;3.55;;;;;;;-146.27;83.25;44225.13;5090538;28;20111;-73
2024/03/20 03:41:00;;;;;;;13.70;3.78;;;;;;;-146.27;83.80;44245.00;5089337;28;20036;-73
2024/03/20 03:43:25;;;;;;;9.82;3.30;;;;;;;-146.27;84.06;44197.25;5093927;28;20028;-74
2024/03/20 03:45:51;;;;;;;7.80;3.05;;;;;;;-146.27;84.14;44203.22;5090209;28;20068;-73
2024/03/20 03:48:16;;;;;;;12.40;3.80;;;;;;;-146.27;84.14;44189.31;5078037;28;20078;-74
2024/03/20 03:50:42;;;;;;;8.10;3.25;;;;;;;-146.27;84.29;44167.41;5085561;28;20387;-73
2024/03/20 03:53:07;;;;;;;10.45;3.00;;;;;;;-146.27;84.06;44207.22;5086660;28;20038;-74
2024/03/20 03:55:33;;;;;;;9.98;3.45;;;;;;;-146.27;84.01;44183.34;5074804;28;20107;-73
2024/03/20 03:57:58;;;;;;;6.63;2.95;;;;;;;-146.27;84.13;44221.13;5094315;28;20027;-74
2024/03/20 04:00:24;;;;;;;8.07;3.42;;;;;;;-146.27;83.75;44223.13;5071193;28;20044;-73
2024/03/20 04:02:49;;;;;;;12.98;3.40;;;;;;;-146.27;84.55;44211.19;5090083;28;20419;-73
2024/03/20 04:05:15;;;;;;;12.93;3.38;;;;;;;-146.27;84.21;44197.25;5073731;28;20530;-73
2024/03/20 04:07:40;;;;;;;11.07;3.70;;;;;;;-146.27;83.95;44247.00;5089211;28;20510;-74
2024/03/20 04:10:06;;;;;;;15.18;3.88;;;;;;;-146.27;83.27;44239.03;5086120;28;20085;-74
2024/03/20 04:12:31;;;;;;;12.38;3.42;;;;;;;-146.27;83.61;44249.00;5099851;28;20429;-73
2024/03/20 04:14:56;;;;;;;7.25;3.47;;;;;;;-146.27;84.50;44229.09;5104535;28;20452;-73
2024/03/20 04:17:22;;;;;;;11.93;3.50;;;;;;;-146.27;84.14;44227.09;5094595;28;20016;-73
2024/03/20 04:19:47;;;;;;;9.38;3.58;;;;;;;-146.27;84.91;44191.28;5088702;28;20102;-74
2024/03/20 04:22:13;;;;;;;13.63;3.72;;;;;;;-146.27;85.40;44135.59;5095326;28;20027;-74
2024/03/20 04:24:38;;;;;;;11.65;3.53;;;;;;;-146.27;85.35;44163.44;5083636;28;20011;-74
2024/03/20 04:27:04;;;;;;;10.65;4.18;;;;;;;-146.27;84.86;44163.44;5094408;28;20126;-73
2024/03/20 04:29:29;;;;;;;9.75;3.22;;;;;;;-146.27;84.50;44165.44;5077193;28;20563;-73
2024/03/20 04:31:55;;;;;;;10.18;3.90;;;;;;;-146.27;84.18;44191.28;5104934;28;20099;-73
2024/03/20 04:34:20;;;;;;;9.18;3.72;;;;;;;-146.27;84.28;44187.31;5092510;28;20023;-74
2024/03/20 04:36:48;;;;;;;9.18;3.67;;;;;;;-146.27;84.67;44195.28;5101612;28;20648;-73
2024/03/20 04:39:13;;;;;;;12.23;3.03;;;;;;;-146.27;84.09;44233.06;5099900;28;20034;-73
2024/03/20 04:41:38;;;;;;;10.35;3.40;;;;;;;-146.27;84.42;44183.34;5098052;28;20016;-74
2024/03/20 04:44:04;;;;;;;10.93;3.45;;;;;;;-146.27;85.02;44179.34;5094133;28;20141;-74
2024/03/20 04:46:29;;;;;;;10.85;4.30;;;;;;;-146.27;85.02;44199.25;5087656;28;20035;-73
2024/03/20 04:48:55;;;;;;;12.98;3.60;;;;;;;-146.27;85.94;44127.63;5089069;28;20806;-74
2024/03/20 04:51:21;;;;;;;10.90;3.53;;;;;;;-146.27;84.69;44167.41;5091194;28;20043;-74
2024/03/20 04:53:46;;;;;;;16.30;4.43;;;;;;;-146.27;84.17;44201.25;5106457;28;20020;-74
2024/03/20 04:56:11;;;;;;;8.43;3.63;;;;;;;-146.27;84.60;44149.50;5080925;28;20111;-73
2024/03/20 04:58:37;;;;;;;12.20;3.80;;;;;;;-146.27;84.45;44151.50;5090740;28;20120;-73
2024/03/20 05:01:02;;;;;;;11.02;4.30;;;;;;;-146.27;84.42;44171.41;5090243;28;20028;-73
2024/03/20 05:03:28;;;;;;;10.73;4.35;;;;;;;-146.27;84.37;44159.47;5098684;28;20430;-73
2024/03/20 05:05:53;;;;;;;15.82;5.57;;;;;;;-146.27;84.80;44151.50;5087717;28;20023;-73
2024/03/20 05:08:18;;;;;;;15.73;4.57;;;;;;;-146.27;84.63;44159.47;5098229;28;20019;-73
2024/03/20 05:10:44;;;;;;;13.80;3.60;;;;;;;-146.27;84.26;44191.28;5090460;28;20480;-73
2024/03/20 05:13:09;;;;;;;11.82;3.85;;;;;;;-146.27;85.21;44119.66;5106346;27;20110;-74
2024/03/20 05:15:40;;;;;;;8.45;4.10;;;;;;;-146.27;85.03;44107.72;5085497;28;20058;-74
2024/03/20 05:18:06;;;;;;;13.13;4.15;;;;;;;-146.27;84.76;44115.69;5082731;28;20032;-73
2024/03/20 05:20:31;;;;;;;13.50;4.35;;;;;;;-146.27;85.32;44103.75;5086603;28;20581;-74
2024/03/20 05:22:57;;;;;;;16.70;4.43;;;;;;;-146.27;84.77;44147.53;5093244;28;20051;-72
2024/03/20 05:25:22;;;;;;;9.10;3.90;;;;;;;-146.27;85.46;44119.66;5085924;28;20127;-73
2024/03/20 05:27:47;;;;;;;11.50;4.70;;;;;;;-146.27;85.07;44119.66;5093858;28;20035;-75
2024/03/20 05:30:13;;;;;;;11.68;4.20;;;;;;;-146.27;84.77;44139.56;5089042;28;20441;-74
2024/03/20 05:32:38;;;;;;;21.00;4.55;;;;;;;-146.27;84.60;44155.47;5088847;28;20564;-75
2024/03/20 05:35:04;;;;;;;9.35;4.38;;;;;;;-146.27;84.70;44155.47;5087312;28;20028;-74
2024/03/20 05:37:30;;;;;;;17.75;5.57;;;;;;;-146.27;84.97;44157.47;5089145;28;20035;-74
2024/03/20 05:39:55;;;;;;;14.18;4.82;;;;;;;-146.27;84.91;44147.53;5083376;28;20081;-74
2024/03/20 05:42:21;;;;;;;13.82;4.88;;;;;;;-146.27;85.43;44089.81;5086340;28;20053;-74
2024/03/20 05:44:47;;;;;;;10.90;4.78;;;;;;;-146.27;85.33;44133.59;5095331;28;20020;-74
2024/03/20 05:47:12;;;;;;;10.35;4.35;;;;;;;-146.27;85.48;44123.66;5085445;28;20154;-74
2024/03/20 05:49:37;;;;;;;12.60;4.38;;;;;;;-146.27;85.34;44123.66;5089370;28;20024;-75
2024/03/20 05:52:04;;;;;;;14.07;4.60;;;;;;;-146.27;85.66;44137.56;5101168;28;20077;-74
2024/03/20 05:54:29;;;;;;;14.32;5.15;;;;;;;-146.27;85.15;44123.66;5080178;28;20028;-74
2024/03/20 05:56:55;;;;;;;10.65;4.32;;;;;;;-146.27;85.14;44149.50;5081468;28;20489;-74
2024/03/20 05:59:21;;;;;;;13.45;5.18;;;;;;;-146.27;85.21;44185.31;5090707;28;20043;-74
2024/03/20 06:01:46;;;;;;;14.77;4.95;;;;;;;-146.27;85.48;44165.44;5091265;28;20052;-74
2024/03/20 06:04:12;;;;;;;16.67;5.30;;;;;;;-146.27;85.29;44179.34;5088503;28;20441;-74
2024/03/20 06:06:38;;;;;;;17.45;5.13;;;;;;;-146.27;85.56;44211.19;5090789;28;20024;-74
2024/03/20 06:09:04;;;;;;;13.15;5.50;;;;;;;-146.27;85.29;44223.13;5091190;28;20502;-74
2024/03/20 06:11:29;;;;;;;10.90;4.47;;;;;;;-146.27;85.21;44243.03;5089238;28;20031;-74
2024/03/20 06:13:56;;;;;;;14.10;5.93;;;;;;;-146.27;84.94;44274.84;5073685;28;20020;-74
2024/03/20 06:16:22;;;;;;;12.73;4.88;;;;;;;-146.27;85.02;44298.75;5088997;28;20446;-74
2024/03/20 06:18:47;;;;;;;16.63;5.05;;;;;;;-146.27;85.10;44322.63;5080582;28;20032;-74
2024/03/20 06:21:12;;;;;;;16.65;5.07;;;;;;;-146.27;85.05;44364.41;5080393;28;20020;-74
2024/03/20 06:23:38;;;;;;;20.02;5.13;;;;;;;-146.27;85.24;44402.19;5078183;28;20021;-74
2024/03/20 06:26:04;;;;;;;13.55;5.15;;;;;;;-146.27;84.98;44442.00;5081963;28;20624;-74
2024/03/20 06:28:30;;;;;;;16.05;6.32;;;;;;;-146.27;85.38;44442.00;5081616;28;20066;-74
2024/03/20 06:30:55;;;;;;;16.00;5.28;;;;;;;-146.27;85.79;44438.00;5083793;28;20020;-74
2024/03/20 06:33:21;;;;;;;14.15;5.60;;;;;;;-146.27;85.37;44485.78;5091344;28;20573;-74
2024/03/20 06:35:50;;;;;;;10.75;5.80;;;;;;;-146.27;85.65;44497.72;5079861;28;20031;-74
2024/03/20 06:38:17;;;;;;;12.07;5.80;;;;;;;-146.27;85.83;44477.81;5079286;28;20036;-74
2024/03/20 06:40:44;;;;;;;16.90;6.05;;;;;;;-146.27;85.74;44515.63;5087764;28;20108;-73
2024/03/20 06:43:10;;;;;;;18.55;5.35;;;;;;;-146.27;85.55;44567.34;5088519;28;20131;-73
2024/03/20 06:45:41;;;;;;;11.82;6.03;;;;;;;-146.27;86.14;44489.75;5083550;28;20020;-73
2024/03/20 06:48:08;;;;;;;15.20;6.32;;;;;;;-146.27;86.29;44489.75;5089077;28;20039;-73
2024/03/20 06:50:34;;;;;;;18.38;5.38;;;;;;;-146.27;86.10;44503.69;5087216;28;20028;-74
2024/03/20 06:53:00;;;;;;;16.90;5.95;;;;;;;-146.27;86.24;44465.88;5089569;28;20495;-73
2024/03/20 06:55:26;;;;;;;18.02;6.57;;;;;;;-146.27;85.76;44438.00;5093630;28;20024;-72
2024/03/20 06:57:52;;;;;;;14.73;5.68;;;;;;;-146.27;85.91;44438.00;5096004;28;20039;-73
2024/03/20 07:00:18;;;;;;;10.70;5.65;;;;;;;-146.27;85.97;44438.00;5094940;28;20024;-77
2024/03/20 07:02:45;;;;;;;14.20;6.45;;;;;;;-146.27;85.73;44418.13;5097867;28;20027;-73
2024/03/20 07:05:14;;;;;;;13.73;6.03;;;;;;;-146.27;86.05;44398.22;5087311;28;20024;-74
2024/03/20 07:07:40;;;;;;;12.63;5.53;;;;;;;-146.27;85.91;44388.28;5090128;28;20028;-76
2024/03/20 07:10:06;;;;;;;14.45;6.07;;;;;;;-146.27;85.86;44382.31;5086374;28;20029;-75
2024/03/20 07:12:31;;;;;;;15.55;6.22;;;;;;;-146.27;85.18;44362.41;5089532;28;20077;-76
2024/03/20 07:14:57;;;;;;;13.80;6.60;;;;;;;-146.27;85.17;44362.41;5089836;28;20123;-73
2024/03/20 07:17:22;;;;;;;14.68;5.93;;;;;;;-146.27;84.92;44382.31;5088340;28;20029;-73
2024/03/20 07:19:52;;;;;;;23.35;7.25;;;;;;;-146.27;84.75;44388.28;5088411;28;20043;-73
2024/03/20 07:22:17;;;;;;;18.67;6.70;;;;;;;-146.27;84.17;44364.41;5085902;28;20071;-73
2024/03/20 07:24:43;;;;;;;20.55;6.47;;;;;;;-146.27;83.47;44402.19;5089522;28;20504;-72
2024/03/20 07:27:08;;;;;;;15.15;6.45;;;;;;;-146.27;83.11;44386.28;5085857;28;20085;-74
2024/03/20 07:29:33;;;;;;;14.35;6.13;;;;;;;-146.27;82.54;44386.28;5089565;28;20069;-73
2024/03/20 07:32:00;;;;;;;17.02;6.43;;;;;;;-146.27;82.15;44414.13;5093796;28;20484;-74
2024/03/20 07:34:25;;;;;;;14.73;5.93;;;;;;;-146.27;82.04;44410.16;5088547;28;20124;-74
2024/03/20 07:36:51;;;;;;;14.45;6.30;;;;;;;-146.27;82.36;44382.31;5101315;28;20047;-74
2024/03/20 07:39:16;;;;;;;17.50;6.30;;;;;;;-146.27;81.89;44406.19;5095068;28;20065;-73
2024/03/20 07:41:42;;;;;;;13.65;7.03;;;;;;;-146.27;80.56;44453.94;5092587;28;20114;-76
2024/03/20 07:44:07;;;;;;;13.50;6.93;;;;;;;-146.27;80.51;44453.94;5105539;28;20024;-74
2024/03/20 07:46:34;;;;;;;15.18;6.60;;;;;;;-146.27;80.34;44430.06;5098120;28;20028;-76
2024/03/20 07:48:59;;;;;;;21.55;7.07;;;;;;;-146.27;79.85;44430.06;5096341;28;20020;-76
2024/03/20 07:51:24;;;;;;;13.77;6.30;;;;;;;-146.27;79.62;44449.97;5100242;28;20213;-76
2024/03/20 07:53:50;;;;;;;19.85;7.00;;;;;;;-146.27;79.33;44453.94;5108659;28;20051;-76
2024/03/20 07:56:15;;;;;;;17.63;6.80;;;;;;;-146.27;78.95;44406.19;5099778;28;20027;-76
2024/03/20 07:58:44;;;;;;;15.90;7.10;;;;;;;-146.27;78.56;44465.88;5104287;28;20023;-76
2024/03/20 08:01:11;;;;;;;19.23;6.38;;;;;;;-146.27;78.08;44457.91;5091935;28;20098;-76
2024/03/20 08:03:42;;;;;;;15.55;6.32;;;;;;;-146.27;77.59;44485.78;5095526;28;20039;-76
2024/03/20 08:06:08;;;;;;;14.10;6.35;;;;;;;-146.27;77.34;44481.78;5101561;27;20024;-71
2024/03/20 08:08:33;;;;;;;20.13;7.45;;;;;;;-146.27;77.13;44430.06;5100643;28;20023;-70
2024/03/20 08:10:59;;;;;;;13.63;5.60;;;;;;;-146.27;76.74;44402.19;5093061;28;20081;-71
2024/03/20 08:13:24;;;;;;;11.35;5.28;;;;;;;-146.27;76.36;44426.06;5099091;28;20024;-70
2024/03/20 08:15:49;;;;;;;18.17;6.10;;;;;;;-146.27;75.87;44432.03;5108135;28;20040;-70
2024/03/20 08:18:15;;;;;;;16.15;6.22;;;;;;;-146.27;75.51;44410.16;5092881;28;20028;-70
2024/03/20 08:20:40;;;;;;;16.20;6.25;;;;;;;-146.27;75.10;44418.13;5097006;28;20020;-70
2024/03/20 08:23:06;;;;;;;16.92;6.10;;;;;;;-146.27;74.74;44422.09;5105761;28;20031;-69
2024/03/20 08:25:31;;;;;;;18.92;6.68;;;;;;;-146.27;74.86;44414.13;5096484;28;20036;-71
2024/03/20 08:27:57;;;;;;;12.95;5.97;;;;;;;-146.27;74.18;44457.91;5089427;28;20297;-69
2024/03/20 08:30:23;;;;;;;15.82;5.50;;;;;;;-146.27;73.78;44418.13;5100022;28;20084;-70
2024/03/20 08:32:49;;;;;;;19.77;6.35;;;;;;;-146.27;73.27;44471.84;5102236;28;20050;-70
2024/03/20 08:35:16;;;;;;;15.82;6.28;;;;;;;-146.27;73.03;44432.03;5098693;28;20068;-70
2024/03/20 08:37:45;;;;;;;13.95;5.07;;;;;;;-146.27;71.68;44575.31;5093910;28;20388;-70
2024/03/20 08:40:14;;;;;;;12.15;5.47;;;;;;;-146.27;71.07;44601.19;5108077;28;20035;-70
2024/03/20 08:42:41;;;;;;;10.63;4.70;;;;;;;-146.27;70.87;44571.34;5094046;28;20476;-70
2024/03/20 08:45:08;;;;;;;12.48;5.38;;;;;;;-146.27;70.58;44571.34;5089398;28;20089;-70
2024/03/20 08:47:37;;;;;;;11.93;4.55;;;;;;;-146.27;70.63;44501.69;5091671;28;20078;-70
2024/03/20 08:50:03;;;;;;;16.77;5.30;;;;;;;-146.27;69.57;44523.56;5081486;28;20274;-70
2024/03/20 08:52:29;;;;;;;11.60;4.32;;;;;;;-146.27;69.19;44617.09;5106526;27;20032;-70
2024/03/20 08:54:54;;;;;;;14.38;4.68;;;;;;;-146.27;68.05;44621.06;5094328;28;20434;-69
2024/03/20 08:57:19;;;;;;;15.45;4.57;;;;;;;-146.27;67.64;44654.91;5104223;28;20077;-70
2024/03/20 08:59:45;;;;;;;13.50;4.88;;;;;;;-146.27;67.76;44642.97;5094230;28;20081;-70
2024/03/20 09:02:12;;;;;;;10.40;4.28;;;;;;;-146.27;68.49;44581.28;5096947;28;20110;-72
2024/03/20 09:04:37;;;;;;;14.27;5.35;;;;;;;-146.27;67.97;44553.41;5101344;28;20468;-70
2024/03/20 09:07:03;;;;;;;23.15;7.63;;;;;;;-146.27;67.30;44595.22;5095990;28;20039;-69
2024/03/20 09:09:31;;;;;;;11.77;5.20;;;;;;;-146.27;67.21;44583.28;5093681;28;20039;-71
2024/03/20 09:11:57;;;;;;;18.88;5.65;;;;;;;-146.27;66.51;44593.22;5093839;28;20024;-71
2024/03/20 09:14:22;;;;;;;15.90;6.15;;;;;;;-146.27;67.43;44519.59;5095321;28;20429;-76
2024/03/20 09:16:50;;;;;;;15.80;6.78;;;;;;;-146.27;66.82;44533.53;5101250;28;20032;-76
2024/03/20 09:19:16;;;;;;;17.98;7.82;;;;;;;-146.27;65.84;44591.22;5097234;28;20028;-76
2024/03/20 09:21:43;;;;;;;15.93;7.05;;;;;;;-146.27;65.84;44527.56;5108920;28;20097;-74
2024/03/20 09:24:16;;;;;;;15.18;7.82;;;;;;;-146.27;65.91;44561.38;5081209;28;20498;-75
2024/03/20 09:26:42;;;;;;;16.27;7.33;;;;;;;-146.27;65.71;44483.78;5101431;28;20522;-74
2024/03/20 09:29:08;;;;;;;18.10;8.73;;;;;;;-146.27;65.15;44551.44;5093892;28;20368;-74
2024/03/20 09:31:33;;;;;;;23.30;8.48;;;;;;;-146.27;64.37;44511.63;5094371;28;20181;-75
2024/03/20 09:33:59;;;;;;;18.10;8.20;;;;;;;-146.27;63.65;44521.59;5104943;27;20066;-75
2024/03/20 09:36:26;;;;;;;26.90;9.13;;;;;;;-146.27;63.19;44692.72;5107054;28;20106;-73
2024/03/20 09:38:52;;;;;;;17.30;8.70;;;;;;;-146.27;63.09;44633.00;5096219;28;20111;-74
2024/03/20 09:41:22;;;;;;;17.83;8.55;;;;;;;-146.27;63.57;44469.84;5091894;28;20036;-74
2024/03/20 09:43:47;;;;;;;22.63;9.63;;;;;;;-146.27;63.16;44656.91;5096028;28;20043;-74
2024/03/20 09:46:15;;;;;;;20.50;10.20;;;;;;;-146.27;63.65;44573.31;5084337;28;20471;-74
2024/03/20 09:48:41;;;;;;;24.38;10.20;;;;;;;-146.27;61.82;44607.16;5092161;28;20439;-74
2024/03/20 09:51:07;;;;;;;23.95;10.25;;;;;;;-146.27;62.69;44573.31;5074085;28;20111;-73
2024/03/20 09:53:34;;;;;;;24.40;10.70;;;;;;;-146.27;62.79;44517.59;5088181;28;20028;-74
2024/03/20 09:56:21;;;;;;;25.00;10.90;;;;;;;-146.27;62.92;44545.47;5092810;28;20096;-73
2024/03/20 09:58:48;;;;;;;23.77;10.45;;;;;;;-146.27;62.39;44633.00;5089310;28;20576;-75
2024/03/20 10:01:19;;;;;;;19.38;10.25;;;;;;;-146.27;62.68;44607.16;5093508;28;20476;-75
2024/03/20 10:03:45;;;;;;;32.63;12.07;;;;;;;-146.27;61.79;44573.31;5095377;28;20036;-75
2024/03/20 10:06:11;;;;;;;18.88;10.07;;;;;;;-146.27;61.67;44569.34;5096628;28;20544;-75
2024/03/20 10:08:39;;;;;;;20.27;9.27;;;;;;;-146.27;60.89;44541.47;5095015;28;20025;-75
2024/03/20 10:11:07;;;;;;;24.38;10.60;;;;;;;-146.27;60.60;44563.38;5076229;28;20036;-75
2024/03/20 10:13:33;;;;;;;22.52;11.15;;;;;;;-146.27;60.21;44511.63;5101794;28;20034;-75
2024/03/20 10:16:09;;;;;;;22.80;10.55;;;;;;;-146.27;61.87;44442.00;5092235;28;20027;-75
2024/03/20 10:18:35;;;;;;;22.05;10.43;;;;;;;-146.27;60.10;44420.09;5085419;28;20016;-74
2024/03/20 10:21:03;;;;;;;23.88;10.45;;;;;;;-146.27;59.48;44533.53;5089623;28;20024;-74
2024/03/20 10:23:29;;;;;;;24.63;10.65;;;;;;;-146.27;59.66;44465.88;5092427;28;20060;-74
2024/03/20 10:25:58;;;;;;;21.40;10.05;;;;;;;-146.27;59.68;44445.97;5097155;28;20043;-70
2024/03/20 10:28:29;;;;;;;26.75;11.60;;;;;;;-146.27;58.88;44509.66;5094710;28;20501;-70
2024/03/20 10:30:57;;;;;;;28.40;12.15;;;;;;;-146.27;60.29;44633.00;5091183;28;20030;-71
2024/03/20 10:33:24;;;;;;;21.15;11.30;;;;;;;-146.27;59.81;44537.50;5090921;28;20055;-70
2024/03/20 10:35:51;;;;;;;19.52;9.73;;;;;;;-146.27;60.05;44457.91;5090648;28;20044;-71
2024/03/20 10:38:18;;;;;;;22.70;11.23;;;;;;;-146.27;59.87;44555.41;5085649;28;20434;-71
2024/03/20 10:40:48;;;;;;;25.95;10.82;;;;;;;-146.27;59.57;44573.31;5086661;28;20028;-71
2024/03/20 10:43:17;;;;;;;25.13;11.93;;;;;;;-146.27;60.63;44491.75;5091025;28;20036;-74
2024/03/20 10:45:42;;;;;;;25.77;11.32;;;;;;;-146.27;59.04;44457.91;5090209;28;20025;-72
2024/03/20 10:48:14;;;;;;;20.00;11.10;;;;;;;-146.27;58.85;44601.19;5087924;28;20131;-73
2024/03/20 10:50:41;;;;;;;26.23;11.68;;;;;;;-146.27;59.20;44521.59;5088788;28;20406;-71
2024/03/20 10:53:07;;;;;;;20.92;9.98;;;;;;;-146.27;58.33;44469.84;5082882;28;20081;-72
2024/03/20 10:55:32;;;;;;;20.70;10.02;;;;;;;-146.27;58.08;44481.78;5086068;28;20029;-69
2024/03/20 10:57:58;;;;;;;18.00;9.45;;;;;;;-146.27;58.52;44549.44;5093359;28;20027;-71
2024/03/20 11:00:24;;;;;;;21.65;9.55;;;;;;;-146.27;58.21;44549.44;5102613;28;20016;-72
2024/03/20 11:02:50;;;;;;;18.77;9.48;;;;;;;-146.27;58.53;44637.00;5099038;28;20032;-71
2024/03/20 11:05:33;;;;;;;16.50;9.35;;;;;;;-146.27;58.00;44434.03;5104376;28;20049;-71